sensor_id;sensor_type;location;lat;lon;timestamp;temperature;humidity
19224;DHT22;9746;47.180;9.776;2022-09-09T06:28:44;17.30;99.90
19224;DHT22;9746;47.180;9.776;2022-09-09T06:31:15;17.30;99.90
19224;DHT22;9746;47.180;9.776;2022-09-09T06:33:47;17.30;99.90
19224;DHT22;9746;47.180;9.776;2022-09-09T06:36:17;17.30;99.90
19224;DHT22;9746;47.180;9.776;2022-09-09T06:38:45;17.40;99.90
19224;DHT22;9746;47.180;9.776;2022-09-09T06:41:15;17.60;99.90
19224;DHT22;9746;47.180;9.776;2022-09-09T06:43:45;17.70;99.90
19224;DHT22;9746;47.180;9.776;2022-09-09T06:46:15;17.80;99.90
19224;DHT22;9746;47.180;9.776;2022-09-09T06:48:43;17.90;99.90
19224;DHT22;9746;47.180;9.776;2022-09-09T06:51:13;18.00;99.90
19224;DHT22;9746;47.180;9.776;2022-09-09T06:53:42;18.10;99.90
19224;DHT22;9746;47.180;9.776;2022-09-09T06:56:21;18.20;99.90
19224;DHT22;9746;47.180;9.776;2022-09-09T06:58:51;18.30;99.90
19224;DHT22;9746;47.180;9.776;2022-09-09T07:01:22;18.40;99.90
19224;DHT22;9746;47.180;9.776;2022-09-09T07:03:51;18.50;99.90
19224;DHT22;9746;47.180;9.776;2022-09-09T07:06:20;18.50;99.90
19224;DHT22;9746;47.180;9.776;2022-09-09T07:08:51;18.50;99.90
19224;DHT22;9746;47.180;9.776;2022-09-09T07:11:19;18.60;99.90
19224;DHT22;9746;47.180;9.776;2022-09-09T07:13:48;18.70;99.90
19224;DHT22;9746;47.180;9.776;2022-09-09T07:16:18;18.60;99.90
19224;DHT22;9746;47.180;9.776;2022-09-09T07:18:46;18.70;99.90
19224;DHT22;9746;47.180;9.776;2022-09-09T07:21:16;18.70;99.90
19224;DHT22;9746;47.180;9.776;2022-09-09T07:23:45;18.80;99.90
19224;DHT22;9746;47.180;9.776;2022-09-09T07:26:14;18.90;99.90
19224;DHT22;9746;47.180;9.776;2022-09-09T07:28:42;19.00;99.90
19224;DHT22;9746;47.180;9.776;2022-09-09T07:31:13;18.90;99.90
19224;DHT22;9746;47.180;9.776;2022-09-09T07:33:43;18.90;99.90
19224;DHT22;9746;47.180;9.776;2022-09-09T07:36:14;18.80;99.90
19224;DHT22;9746;47.180;9.776;2022-09-09T07:38:43;18.70;99.90
19224;DHT22;9746;47.180;9.776;2022-09-09T07:41:13;18.80;99.90
19224;DHT22;9746;47.180;9.776;2022-09-09T07:43:42;18.80;99.90
19224;DHT22;9746;47.180;9.776;2022-09-09T07:46:12;18.90;99.90
19224;DHT22;9746;47.180;9.776;2022-09-09T07:48:45;19.10;99.90
19224;DHT22;9746;47.180;9.776;2022-09-09T07:51:17;19.30;99.90
19224;DHT22;9746;47.180;9.776;2022-09-09T07:53:46;19.50;99.90
19224;DHT22;9746;47.180;9.776;2022-09-09T07:56:15;19.90;99.90
19224;DHT22;9746;47.180;9.776;2022-09-09T07:58:45;20.20;99.90
19224;DHT22;9746;47.180;9.776;2022-09-09T08:01:14;20.40;99.90
19224;DHT22;9746;47.180;9.776;2022-09-09T08:03:44;20.60;99.90
19224;DHT22;9746;47.180;9.776;2022-09-09T08:06:12;20.80;99.90
19224;DHT22;9746;47.180;9.776;2022-09-09T08:08:40;21.00;99.90
19224;DHT22;9746;47.180;9.776;2022-09-09T08:11:12;21.20;99.90
19224;DHT22;9746;47.180;9.776;2022-09-09T08:13:42;21.40;99.90
19224;DHT22;9746;47.180;9.776;2022-09-09T08:16:11;21.70;99.90
19224;DHT22;9746;47.180;9.776;2022-09-09T08:18:39;22.00;99.90
19224;DHT22;9746;47.180;9.776;2022-09-09T08:21:10;22.20;99.90
19224;DHT22;9746;47.180;9.776;2022-09-09T08:23:39;22.50;99.90
19224;DHT22;9746;47.180;9.776;2022-09-09T08:26:10;22.70;99.90
19224;DHT22;9746;47.180;9.776;2022-09-09T08:28:38;22.80;99.90
19224;DHT22;9746;47.180;9.776;2022-09-09T08:31:12;23.00;99.90
19224;DHT22;9746;47.180;9.776;2022-09-09T08:33:40;23.20;99.90
19224;DHT22;9746;47.180;9.776;2022-09-09T08:36:11;23.40;99.90
19224;DHT22;9746;47.180;9.776;2022-09-09T08:38:39;23.60;99.90
19224;DHT22;9746;47.180;9.776;2022-09-09T08:41:43;23.60;99.90
19224;DHT22;9746;47.180;9.776;2022-09-09T08:44:21;23.70;99.90
19224;DHT22;9746;47.180;9.776;2022-09-09T08:46:58;23.80;99.90
19224;DHT22;9746;47.180;9.776;2022-09-09T08:49:48;23.70;99.90
19224;DHT22;9746;47.180;9.776;2022-09-09T08:52:22;23.40;99.90
19224;DHT22;9746;47.180;9.776;2022-09-09T08:54:51;23.10;99.90
19224;DHT22;9746;47.180;9.776;2022-09-09T08:57:23;22.50;99.90
19224;DHT22;9746;47.180;9.776;2022-09-09T08:59:53;22.00;99.90
19224;DHT22;9746;47.180;9.776;2022-09-09T09:02:24;21.20;99.90
19224;DHT22;9746;47.180;9.776;2022-09-09T09:05:09;20.50;99.90
19224;DHT22;9746;47.180;9.776;2022-09-09T09:07:52;20.10;99.90
19224;DHT22;9746;47.180;9.776;2022-09-09T09:10:34;19.80;99.90
19224;DHT22;9746;47.180;9.776;2022-09-09T09:13:10;19.60;99.90
19224;DHT22;9746;47.180;9.776;2022-09-09T09:15:39;19.40;99.90
19224;DHT22;9746;47.180;9.776;2022-09-09T09:18:10;19.20;99.90
19224;DHT22;9746;47.180;9.776;2022-09-09T09:20:47;19.10;99.90
19224;DHT22;9746;47.180;9.776;2022-09-09T09:23:22;19.00;99.90
19224;DHT22;9746;47.180;9.776;2022-09-09T09:25:52;18.90;99.90
19224;DHT22;9746;47.180;9.776;2022-09-09T09:28:25;18.90;99.90
19224;DHT22;9746;47.180;9.776;2022-09-09T09:30:57;18.90;99.90
19224;DHT22;9746;47.180;9.776;2022-09-09T09:33:32;18.80;99.90
19224;DHT22;9746;47.180;9.776;2022-09-09T09:36:02;18.80;99.90
19224;DHT22;9746;47.180;9.776;2022-09-09T09:38:32;18.70;99.90
19224;DHT22;9746;47.180;9.776;2022-09-09T09:41:00;18.70;99.90
19224;DHT22;9746;47.180;9.776;2022-09-09T09:43:29;18.70;99.90
19224;DHT22;9746;47.180;9.776;2022-09-09T09:45:58;18.70;99.90
19224;DHT22;9746;47.180;9.776;2022-09-09T09:48:26;18.70;99.90
19224;DHT22;9746;47.180;9.776;2022-09-09T09:50:56;18.60;99.90
19224;DHT22;9746;47.180;9.776;2022-09-09T09:53:27;18.60;99.90
19224;DHT22;9746;47.180;9.776;2022-09-09T09:55:58;18.50;99.90
19224;DHT22;9746;47.180;9.776;2022-09-09T09:58:29;18.50;99.90
19224;DHT22;9746;47.180;9.776;2022-09-09T10:01:00;18.10;99.90
19224;DHT22;9746;47.180;9.776;2022-09-09T10:03:29;17.80;99.90
19224;DHT22;9746;47.180;9.776;2022-09-09T10:05:57;17.60;99.90
19224;DHT22;9746;47.180;9.776;2022-09-09T10:08:26;17.50;99.90
19224;DHT22;9746;47.180;9.776;2022-09-09T10:11:05;17.60;99.90
19224;DHT22;9746;47.180;9.776;2022-09-09T10:13:41;17.80;99.90
19224;DHT22;9746;47.180;9.776;2022-09-09T10:16:21;17.90;99.90
19224;DHT22;9746;47.180;9.776;2022-09-09T10:18:59;18.00;99.90
19224;DHT22;9746;47.180;9.776;2022-09-09T10:21:49;18.10;99.90
19224;DHT22;9746;47.180;9.776;2022-09-09T10:24:51;18.20;99.90
19224;DHT22;9746;47.180;9.776;2022-09-09T10:27:29;18.30;99.90
19224;DHT22;9746;47.180;9.776;2022-09-09T10:30:12;18.30;99.90
19224;DHT22;9746;47.180;9.776;2022-09-09T10:32:47;18.50;99.90
19224;DHT22;9746;47.180;9.776;2022-09-09T10:35:29;18.60;99.90
19224;DHT22;9746;47.180;9.776;2022-09-09T10:38:17;18.70;99.90
19224;DHT22;9746;47.180;9.776;2022-09-09T10:41:09;18.60;99.90
19224;DHT22;9746;47.180;9.776;2022-09-09T10:43:52;18.40;99.90
19224;DHT22;9746;47.180;9.776;2022-09-09T10:46:34;18.50;99.90
19224;DHT22;9746;47.180;9.776;2022-09-09T10:49:15;18.70;99.90
19224;DHT22;9746;47.180;9.776;2022-09-09T10:51:52;18.70;99.90
19224;DHT22;9746;47.180;9.776;2022-09-09T10:54:32;18.90;99.90
19224;DHT22;9746;47.180;9.776;2022-09-09T10:57:08;19.00;99.90
19224;DHT22;9746;47.180;9.776;2022-09-09T10:59:46;19.10;99.90
19224;DHT22;9746;47.180;9.776;2022-09-09T11:02:19;19.30;99.90
19224;DHT22;9746;47.180;9.776;2022-09-09T11:04:54;19.40;99.90
19224;DHT22;9746;47.180;9.776;2022-09-09T11:07:29;19.40;99.90
19224;DHT22;9746;47.180;9.776;2022-09-09T11:10:03;19.60;99.90
19224;DHT22;9746;47.180;9.776;2022-09-09T11:12:34;20.00;99.90
19224;DHT22;9746;47.180;9.776;2022-09-09T11:15:12;20.00;99.90
19224;DHT22;9746;47.180;9.776;2022-09-09T11:17:46;20.10;99.90
19224;DHT22;9746;47.180;9.776;2022-09-09T11:20:15;20.20;99.90
19224;DHT22;9746;47.180;9.776;2022-09-09T11:22:47;20.10;99.90
19224;DHT22;9746;47.180;9.776;2022-09-09T11:25:17;20.10;99.90
19224;DHT22;9746;47.180;9.776;2022-09-09T11:27:57;20.20;99.90
19224;DHT22;9746;47.180;9.776;2022-09-09T11:30:35;20.40;99.90
19224;DHT22;9746;47.180;9.776;2022-09-09T11:36:38;21.30;99.90
19224;DHT22;9746;47.180;9.776;2022-09-09T11:42:07;21.30;99.90
19224;DHT22;9746;47.180;9.776;2022-09-09T11:44:34;21.00;99.90
19224;DHT22;9746;47.180;9.776;2022-09-09T11:47:03;20.80;99.90
19224;DHT22;9746;47.180;9.776;2022-09-09T11:49:40;20.30;99.90
19224;DHT22;9746;47.180;9.776;2022-09-09T11:52:12;19.90;99.90
19224;DHT22;9746;47.180;9.776;2022-09-09T11:54:46;19.80;99.90
19224;DHT22;9746;47.180;9.776;2022-09-09T11:57:24;19.70;99.90
19224;DHT22;9746;47.180;9.776;2022-09-09T11:59:52;19.70;99.90
19224;DHT22;9746;47.180;9.776;2022-09-09T12:02:24;19.70;99.90
19224;DHT22;9746;47.180;9.776;2022-09-09T12:04:59;19.60;99.90
19224;DHT22;9746;47.180;9.776;2022-09-09T12:07:36;19.70;99.90
19224;DHT22;9746;47.180;9.776;2022-09-09T12:10:21;19.90;99.90
19224;DHT22;9746;47.180;9.776;2022-09-09T12:12:49;20.20;99.90
19224;DHT22;9746;47.180;9.776;2022-09-09T12:15:23;20.40;99.90
19224;DHT22;9746;47.180;9.776;2022-09-09T12:17:54;20.50;99.90
19224;DHT22;9746;47.180;9.776;2022-09-09T12:20:32;20.80;99.90
19224;DHT22;9746;47.180;9.776;2022-09-09T12:23:15;21.00;99.90
19224;DHT22;9746;47.180;9.776;2022-09-09T12:25:57;21.40;99.90
19224;DHT22;9746;47.180;9.776;2022-09-09T12:28:42;22.30;99.90
19224;DHT22;9746;47.180;9.776;2022-09-09T12:31:16;22.70;99.90
19224;DHT22;9746;47.180;9.776;2022-09-09T12:33:46;23.40;99.90
19224;DHT22;9746;47.180;9.776;2022-09-09T12:36:16;23.70;99.90
19224;DHT22;9746;47.180;9.776;2022-09-09T12:38:45;24.30;99.90
19224;DHT22;9746;47.180;9.776;2022-09-09T12:41:21;24.20;99.90
19224;DHT22;9746;47.180;9.776;2022-09-09T12:43:48;23.80;99.90
19224;DHT22;9746;47.180;9.776;2022-09-09T12:46:23;23.70;99.90
19224;DHT22;9746;47.180;9.776;2022-09-09T12:48:54;23.40;99.90
19224;DHT22;9746;47.180;9.776;2022-09-09T12:51:25;22.80;99.90
19224;DHT22;9746;47.180;9.776;2022-09-09T12:53:53;22.60;99.90
19224;DHT22;9746;47.180;9.776;2022-09-09T12:56:23;22.60;99.90
19224;DHT22;9746;47.180;9.776;2022-09-09T12:58:53;22.90;99.90
19224;DHT22;9746;47.180;9.776;2022-09-09T13:01:24;23.60;99.90
19224;DHT22;9746;47.180;9.776;2022-09-09T13:03:53;23.80;99.90
19224;DHT22;9746;47.180;9.776;2022-09-09T13:06:24;23.70;99.90
19224;DHT22;9746;47.180;9.776;2022-09-09T13:08:52;23.30;99.90
19224;DHT22;9746;47.180;9.776;2022-09-09T13:11:23;23.30;99.90
19224;DHT22;9746;47.180;9.776;2022-09-09T13:13:53;23.10;99.90
19224;DHT22;9746;47.180;9.776;2022-09-09T13:16:26;23.30;99.90
19224;DHT22;9746;47.180;9.776;2022-09-09T13:19:00;23.30;99.90
19224;DHT22;9746;47.180;9.776;2022-09-09T13:21:33;22.90;99.90
19224;DHT22;9746;47.180;9.776;2022-09-09T13:24:01;23.10;99.90
19224;DHT22;9746;47.180;9.776;2022-09-09T13:26:30;23.60;99.90
19224;DHT22;9746;47.180;9.776;2022-09-09T13:29:14;24.80;99.90
19224;DHT22;9746;47.180;9.776;2022-09-09T13:31:45;26.10;99.90
19224;DHT22;9746;47.180;9.776;2022-09-09T13:34:27;27.70;99.90
19224;DHT22;9746;47.180;9.776;2022-09-09T13:36:59;28.10;99.90
19224;DHT22;9746;47.180;9.776;2022-09-09T13:39:29;27.50;99.90
19224;DHT22;9746;47.180;9.776;2022-09-09T13:41:56;26.20;99.90
19224;DHT22;9746;47.180;9.776;2022-09-09T13:44:26;25.30;99.90
19224;DHT22;9746;47.180;9.776;2022-09-09T13:47:03;25.00;99.90
19224;DHT22;9746;47.180;9.776;2022-09-09T13:49:39;24.40;99.90
19224;DHT22;9746;47.180;9.776;2022-09-09T13:52:10;24.20;99.90
19224;DHT22;9746;47.180;9.776;2022-09-09T13:54:39;23.80;99.90
19224;DHT22;9746;47.180;9.776;2022-09-09T13:57:15;23.50;99.90
19224;DHT22;9746;47.180;9.776;2022-09-09T13:59:44;23.70;99.90
19224;DHT22;9746;47.180;9.776;2022-09-09T14:02:12;24.00;99.90
19224;DHT22;9746;47.180;9.776;2022-09-09T14:04:43;25.20;99.90
19224;DHT22;9746;47.180;9.776;2022-09-09T14:07:12;26.70;99.90
19224;DHT22;9746;47.180;9.776;2022-09-09T14:09:41;28.20;99.90
19224;DHT22;9746;47.180;9.776;2022-09-09T14:12:10;29.40;99.90
19224;DHT22;9746;47.180;9.776;2022-09-09T14:14:37;30.00;99.90
19224;DHT22;9746;47.180;9.776;2022-09-09T14:17:05;31.30;99.90
19224;DHT22;9746;47.180;9.776;2022-09-09T14:19:32;32.60;99.90
19224;DHT22;9746;47.180;9.776;2022-09-09T14:22:01;33.40;99.90
19224;DHT22;9746;47.180;9.776;2022-09-09T14:24:28;34.10;99.90
19224;DHT22;9746;47.180;9.776;2022-09-09T14:26:56;33.90;99.90
19224;DHT22;9746;47.180;9.776;2022-09-09T14:29:24;34.30;99.90
19224;DHT22;9746;47.180;9.776;2022-09-09T14:31:53;34.10;99.90
19224;DHT22;9746;47.180;9.776;2022-09-09T14:34:21;34.30;99.90
19224;DHT22;9746;47.180;9.776;2022-09-09T14:36:49;32.80;99.90
19224;DHT22;9746;47.180;9.776;2022-09-09T14:39:18;31.90;99.90
19224;DHT22;9746;47.180;9.776;2022-09-09T14:41:46;30.70;99.90
19224;DHT22;9746;47.180;9.776;2022-09-09T14:44:13;29.70;99.90
19224;DHT22;9746;47.180;9.776;2022-09-09T14:46:42;29.30;99.90
19224;DHT22;9746;47.180;9.776;2022-09-09T14:49:10;28.80;99.90
19224;DHT22;9746;47.180;9.776;2022-09-09T14:51:38;28.70;99.90
19224;DHT22;9746;47.180;9.776;2022-09-09T14:54:05;28.30;99.90
19224;DHT22;9746;47.180;9.776;2022-09-09T14:56:35;28.00;99.90
19224;DHT22;9746;47.180;9.776;2022-09-09T14:59:02;27.20;99.90
19224;DHT22;9746;47.180;9.776;2022-09-09T15:01:30;26.30;99.90
19224;DHT22;9746;47.180;9.776;2022-09-09T15:03:59;25.40;99.90
19224;DHT22;9746;47.180;9.776;2022-09-09T15:06:30;25.20;99.90
19224;DHT22;9746;47.180;9.776;2022-09-09T15:08:59;24.60;99.90
19224;DHT22;9746;47.180;9.776;2022-09-09T15:11:27;24.20;99.90
19224;DHT22;9746;47.180;9.776;2022-09-09T15:13:57;24.30;99.90
19224;DHT22;9746;47.180;9.776;2022-09-09T15:16:26;24.30;99.90
19224;DHT22;9746;47.180;9.776;2022-09-09T15:18:55;24.20;99.90
19224;DHT22;9746;47.180;9.776;2022-09-09T15:21:25;24.20;99.90
19224;DHT22;9746;47.180;9.776;2022-09-09T15:23:53;24.20;99.90
19224;DHT22;9746;47.180;9.776;2022-09-09T15:26:21;24.00;99.90
19224;DHT22;9746;47.180;9.776;2022-09-09T15:28:49;23.80;99.90
19224;DHT22;9746;47.180;9.776;2022-09-09T15:31:20;23.60;99.90
19224;DHT22;9746;47.180;9.776;2022-09-09T15:33:48;23.50;99.90
19224;DHT22;9746;47.180;9.776;2022-09-09T15:36:17;23.00;99.90
19224;DHT22;9746;47.180;9.776;2022-09-09T15:38:45;22.90;99.90
19224;DHT22;9746;47.180;9.776;2022-09-09T15:41:13;22.90;99.90
19224;DHT22;9746;47.180;9.776;2022-09-09T15:43:43;22.90;99.90
19224;DHT22;9746;47.180;9.776;2022-09-09T15:46:31;22.90;99.90
19224;DHT22;9746;47.180;9.776;2022-09-09T15:49:05;22.80;99.90
19224;DHT22;9746;47.180;9.776;2022-09-09T15:51:33;22.70;99.90
19224;DHT22;9746;47.180;9.776;2022-09-09T15:54:01;22.70;99.90
19224;DHT22;9746;47.180;9.776;2022-09-09T15:56:30;22.60;99.90
19224;DHT22;9746;47.180;9.776;2022-09-09T15:58:58;22.60;99.90
19224;DHT22;9746;47.180;9.776;2022-09-09T16:01:27;22.50;99.90
19224;DHT22;9746;47.180;9.776;2022-09-09T16:03:57;22.40;99.90
19224;DHT22;9746;47.180;9.776;2022-09-09T16:06:26;22.10;99.90
19224;DHT22;9746;47.180;9.776;2022-09-09T16:08:56;21.70;99.90
19224;DHT22;9746;47.180;9.776;2022-09-09T16:11:26;21.50;99.90
19224;DHT22;9746;47.180;9.776;2022-09-09T16:13:55;21.30;99.90
19224;DHT22;9746;47.180;9.776;2022-09-09T16:16:25;20.90;99.90
19224;DHT22;9746;47.180;9.776;2022-09-09T16:18:55;20.80;99.90
19224;DHT22;9746;47.180;9.776;2022-09-09T16:21:26;20.80;99.90
19224;DHT22;9746;47.180;9.776;2022-09-09T16:23:55;20.80;99.90
19224;DHT22;9746;47.180;9.776;2022-09-09T16:26:28;20.70;99.90
19224;DHT22;9746;47.180;9.776;2022-09-09T16:28:57;20.70;99.90
19224;DHT22;9746;47.180;9.776;2022-09-09T16:31:26;20.70;99.90
19224;DHT22;9746;47.180;9.776;2022-09-09T16:33:54;20.50;99.90
19224;DHT22;9746;47.180;9.776;2022-09-09T16:36:24;20.30;99.90
19224;DHT22;9746;47.180;9.776;2022-09-09T16:38:52;20.00;99.90
19224;DHT22;9746;47.180;9.776;2022-09-09T16:41:21;19.70;99.90
19224;DHT22;9746;47.180;9.776;2022-09-09T16:43:52;19.60;99.90
19224;DHT22;9746;47.180;9.776;2022-09-09T16:46:22;19.60;99.90
19224;DHT22;9746;47.180;9.776;2022-09-09T16:48:50;19.60;99.90
19224;DHT22;9746;47.180;9.776;2022-09-09T16:51:20;19.60;99.90
19224;DHT22;9746;47.180;9.776;2022-09-09T16:53:51;19.30;99.90
19224;DHT22;9746;47.180;9.776;2022-09-09T16:56:20;19.00;99.90
19224;DHT22;9746;47.180;9.776;2022-09-09T16:58:50;19.00;99.90
19224;DHT22;9746;47.180;9.776;2022-09-09T17:01:18;19.00;99.90
19224;DHT22;9746;47.180;9.776;2022-09-09T17:03:45;19.00;99.90
19224;DHT22;9746;47.180;9.776;2022-09-09T17:06:14;19.00;99.90
19224;DHT22;9746;47.180;9.776;2022-09-09T17:08:43;18.90;99.90
19224;DHT22;9746;47.180;9.776;2022-09-09T17:11:16;18.90;99.90
19224;DHT22;9746;47.180;9.776;2022-09-09T17:13:45;18.90;99.90
19224;DHT22;9746;47.180;9.776;2022-09-09T17:16:14;18.80;99.90
19224;DHT22;9746;47.180;9.776;2022-09-09T17:18:43;18.70;99.90
19224;DHT22;9746;47.180;9.776;2022-09-09T17:21:13;18.70;99.90
19224;DHT22;9746;47.180;9.776;2022-09-09T17:23:41;18.60;99.90
19224;DHT22;9746;47.180;9.776;2022-09-09T17:26:12;18.40;99.90
19224;DHT22;9746;47.180;9.776;2022-09-09T17:28:43;18.10;99.90
19224;DHT22;9746;47.180;9.776;2022-09-09T17:31:13;17.70;99.90
19224;DHT22;9746;47.180;9.776;2022-09-09T17:33:43;17.60;99.90
19224;DHT22;9746;47.180;9.776;2022-09-09T17:36:13;17.40;99.90
19224;DHT22;9746;47.180;9.776;2022-09-09T17:38:41;17.40;99.90
19224;DHT22;9746;47.180;9.776;2022-09-09T17:41:11;17.30;99.90
19224;DHT22;9746;47.180;9.776;2022-09-09T17:43:41;17.20;99.90
19224;DHT22;9746;47.180;9.776;2022-09-09T17:46:10;17.10;99.90
19224;DHT22;9746;47.180;9.776;2022-09-09T17:48:38;17.00;99.90
19224;DHT22;9746;47.180;9.776;2022-09-09T17:51:08;16.90;99.90
19224;DHT22;9746;47.180;9.776;2022-09-09T17:53:37;16.90;99.90
19224;DHT22;9746;47.180;9.776;2022-09-09T17:56:06;16.80;99.90
19224;DHT22;9746;47.180;9.776;2022-09-09T17:58:34;16.70;99.90
19224;DHT22;9746;47.180;9.776;2022-09-09T18:01:05;16.60;99.90
19224;DHT22;9746;47.180;9.776;2022-09-09T18:03:34;16.60;99.90
19224;DHT22;9746;47.180;9.776;2022-09-09T18:06:04;16.40;99.90
19224;DHT22;9746;47.180;9.776;2022-09-09T18:08:32;16.30;99.90
19224;DHT22;9746;47.180;9.776;2022-09-09T18:11:00;16.10;99.90
19224;DHT22;9746;47.180;9.776;2022-09-09T18:13:28;15.90;99.90
19224;DHT22;9746;47.180;9.776;2022-09-09T18:15:56;15.70;99.90
19224;DHT22;9746;47.180;9.776;2022-09-09T18:18:26;15.60;99.90
19224;DHT22;9746;47.180;9.776;2022-09-09T18:20:58;15.50;99.90
19224;DHT22;9746;47.180;9.776;2022-09-09T18:23:28;15.40;99.90
19224;DHT22;9746;47.180;9.776;2022-09-09T18:25:56;15.40;99.90
19224;DHT22;9746;47.180;9.776;2022-09-09T18:28:26;15.50;99.90
19224;DHT22;9746;47.180;9.776;2022-09-09T18:30:54;15.60;99.90
19224;DHT22;9746;47.180;9.776;2022-09-09T18:33:22;15.70;99.90
19224;DHT22;9746;47.180;9.776;2022-09-09T18:35:50;15.60;99.90
19224;DHT22;9746;47.180;9.776;2022-09-09T18:38:18;15.60;99.90
19224;DHT22;9746;47.180;9.776;2022-09-09T18:40:45;15.60;99.90
19224;DHT22;9746;47.180;9.776;2022-09-09T18:43:13;15.70;99.90
19224;DHT22;9746;47.180;9.776;2022-09-09T18:45:40;15.70;99.90
19224;DHT22;9746;47.180;9.776;2022-09-09T18:48:09;15.70;99.90
19224;DHT22;9746;47.180;9.776;2022-09-09T18:50:37;15.80;99.90
19224;DHT22;9746;47.180;9.776;2022-09-09T18:53:06;15.80;99.90
19224;DHT22;9746;47.180;9.776;2022-09-09T18:55:34;15.70;99.90
19224;DHT22;9746;47.180;9.776;2022-09-09T18:58:02;15.60;99.90
19224;DHT22;9746;47.180;9.776;2022-09-09T19:00:30;15.50;99.90
19224;DHT22;9746;47.180;9.776;2022-09-09T19:02:58;15.50;99.90
19224;DHT22;9746;47.180;9.776;2022-09-09T19:05:25;15.40;99.90
19224;DHT22;9746;47.180;9.776;2022-09-09T19:07:53;15.50;99.90
19224;DHT22;9746;47.180;9.776;2022-09-09T19:10:22;15.50;99.90
19224;DHT22;9746;47.180;9.776;2022-09-09T19:12:49;15.50;99.90
19224;DHT22;9746;47.180;9.776;2022-09-09T19:15:17;15.50;99.90
19224;DHT22;9746;47.180;9.776;2022-09-09T19:17:44;15.50;99.90
19224;DHT22;9746;47.180;9.776;2022-09-09T19:20:12;15.60;99.90
19224;DHT22;9746;47.180;9.776;2022-09-09T19:22:41;15.60;99.90
19224;DHT22;9746;47.180;9.776;2022-09-09T19:25:08;15.50;99.90
19224;DHT22;9746;47.180;9.776;2022-09-09T19:27:37;15.60;99.90
19224;DHT22;9746;47.180;9.776;2022-09-09T19:30:06;15.50;99.90
19224;DHT22;9746;47.180;9.776;2022-09-09T19:32:35;15.50;99.90
19224;DHT22;9746;47.180;9.776;2022-09-09T19:35:03;15.50;99.90
19224;DHT22;9746;47.180;9.776;2022-09-09T19:37:31;15.50;99.90
19224;DHT22;9746;47.180;9.776;2022-09-09T19:39:58;15.50;99.90
19224;DHT22;9746;47.180;9.776;2022-09-09T19:42:26;15.50;99.90
19224;DHT22;9746;47.180;9.776;2022-09-09T19:44:56;15.40;99.90
19224;DHT22;9746;47.180;9.776;2022-09-09T19:47:26;15.40;99.90
19224;DHT22;9746;47.180;9.776;2022-09-09T19:49:54;15.40;99.90
19224;DHT22;9746;47.180;9.776;2022-09-09T19:52:21;15.40;99.90
19224;DHT22;9746;47.180;9.776;2022-09-09T19:54:48;15.40;99.90
19224;DHT22;9746;47.180;9.776;2022-09-09T19:57:16;15.40;99.90
19224;DHT22;9746;47.180;9.776;2022-09-09T19:59:44;15.30;99.90
19224;DHT22;9746;47.180;9.776;2022-09-09T20:02:13;15.40;99.90
19224;DHT22;9746;47.180;9.776;2022-09-09T20:04:41;15.40;99.90
19224;DHT22;9746;47.180;9.776;2022-09-09T20:07:09;15.50;99.90
19224;DHT22;9746;47.180;9.776;2022-09-09T20:09:37;15.50;99.90
19224;DHT22;9746;47.180;9.776;2022-09-09T20:12:05;15.50;99.90
19224;DHT22;9746;47.180;9.776;2022-09-09T20:14:33;15.50;99.90
19224;DHT22;9746;47.180;9.776;2022-09-09T20:17:00;15.60;99.90
19224;DHT22;9746;47.180;9.776;2022-09-09T20:19:29;15.50;99.90
19224;DHT22;9746;47.180;9.776;2022-09-09T20:21:57;15.50;99.90
19224;DHT22;9746;47.180;9.776;2022-09-09T20:24:25;15.50;99.90
19224;DHT22;9746;47.180;9.776;2022-09-09T20:26:52;15.40;99.90
19224;DHT22;9746;47.180;9.776;2022-09-09T20:29:21;15.40;99.90
19224;DHT22;9746;47.180;9.776;2022-09-09T20:31:50;15.30;99.90
19224;DHT22;9746;47.180;9.776;2022-09-09T20:34:19;15.30;99.90
